createdAt,value
2023-03-17T00:00:39.501Z,100081.06
2023-03-17T00:03:08.842Z,100087.72
2023-03-17T00:05:37.108Z,100088.75
2023-03-17T00:08:23.854Z,100086.09
2023-03-17T00:10:55.077Z,100081.16
2023-03-17T00:13:24.243Z,100080.66
2023-03-17T00:16:01.327Z,100080.81
2023-03-17T00:18:31.894Z,100076.69
2023-03-17T00:21:00.484Z,100079.25
2023-03-17T00:23:28.608Z,100080.53
2023-03-17T00:25:57.726Z,100088.16
2023-03-17T00:28:27.678Z,100074.47
2023-03-17T00:31:01.257Z,100075.81
2023-03-17T00:33:33.403Z,100071.37
2023-03-17T00:36:02.056Z,100073.38
2023-03-17T00:38:30.737Z,100077.44
2023-03-17T00:40:59.574Z,100081.72
2023-03-17T00:43:30.380Z,100067.28
2023-03-17T00:45:59.115Z,100071.66
2023-03-17T00:48:30.214Z,100066.53
2023-03-17T00:50:58.784Z,100062.59
2023-03-17T00:53:30.003Z,100053.41
2023-03-17T00:56:00.881Z,100054.81
2023-03-17T00:58:31.536Z,100049.00
2023-03-17T01:01:01.199Z,100048.88
2023-03-17T01:03:29.782Z,100060.84
2023-03-17T01:05:58.160Z,100059.88
2023-03-17T01:08:27.091Z,100064.25
2023-03-17T01:10:55.270Z,100056.75
2023-03-17T01:13:24.258Z,100062.78
2023-03-17T01:15:53.302Z,100054.53
2023-03-17T01:18:23.095Z,100057.81
2023-03-17T01:20:51.988Z,100064.09
2023-03-17T01:23:20.611Z,100062.34
2023-03-17T01:25:49.461Z,100067.22
2023-03-17T01:28:19.933Z,100064.63
2023-03-17T01:30:49.482Z,100064.06
2023-03-17T01:33:19.427Z,100068.56
2023-03-17T01:35:47.810Z,100055.31
2023-03-17T01:38:16.470Z,100061.69
2023-03-17T01:40:50.273Z,100054.31
2023-03-17T01:43:24.423Z,100056.44
2023-03-17T01:46:30.985Z,100058.94
2023-03-17T01:49:04.696Z,100064.34
2023-03-17T01:51:51.729Z,100065.97
2023-03-17T01:54:29.999Z,100066.78
2023-03-17T01:57:04.147Z,100062.12
2023-03-17T01:59:35.613Z,100055.47
2023-03-17T02:02:11.175Z,100053.63
2023-03-17T02:04:40.620Z,100052.50
2023-03-17T02:07:10.424Z,100049.00
2023-03-17T02:09:40.591Z,100054.94
2023-03-17T02:12:09.994Z,100064.16
2023-03-17T02:14:38.205Z,100073.25
2023-03-17T02:17:06.869Z,100083.50
2023-03-17T02:19:36.027Z,100082.88
2023-03-17T02:22:04.171Z,100089.00
2023-03-17T02:24:34.304Z,100092.25
2023-03-17T02:27:15.333Z,100085.34
2023-03-17T02:29:46.569Z,100091.75
2023-03-17T02:32:16.054Z,100098.34
2023-03-17T02:34:46.813Z,100101.87
2023-03-17T02:37:16.649Z,100104.56
2023-03-17T02:39:45.175Z,100104.50
2023-03-17T02:42:14.254Z,100108.44
2023-03-17T02:44:42.338Z,100106.66
2023-03-17T02:47:11.125Z,100100.59
2023-03-17T02:49:40.655Z,100102.56
2023-03-17T02:52:09.554Z,100090.44
2023-03-17T02:54:38.484Z,100086.16
2023-03-17T02:57:08.714Z,100096.41
2023-03-17T02:59:37.039Z,100093.44
2023-03-17T03:02:05.968Z,100096.47
2023-03-17T03:04:34.072Z,100094.31
2023-03-17T03:07:03.044Z,100096.69
2023-03-17T03:09:31.648Z,100096.25
2023-03-17T03:12:00.149Z,100097.50
2023-03-17T03:14:28.296Z,100099.28
2023-03-17T03:16:56.902Z,100096.66
2023-03-17T03:19:25.116Z,100094.06
2023-03-17T03:21:53.208Z,100086.50
2023-03-17T03:24:21.727Z,100088.03
2023-03-17T03:26:49.894Z,100079.81
2023-03-17T03:29:18.168Z,100081.97
2023-03-17T03:31:48.865Z,100078.25
2023-03-17T03:34:17.112Z,100083.38
2023-03-17T03:36:45.330Z,100085.13
2023-03-17T03:39:14.515Z,100088.00
2023-03-17T03:41:42.866Z,100078.69
2023-03-17T03:44:11.214Z,100090.88
2023-03-17T03:46:39.767Z,100083.34
2023-03-17T03:49:08.030Z,100088.53
2023-03-17T03:51:36.156Z,100091.81
2023-03-17T03:54:04.599Z,100086.72
2023-03-17T03:56:32.958Z,100087.22
2023-03-17T03:59:01.461Z,100075.13
2023-03-17T04:01:29.970Z,100075.53
2023-03-17T04:03:58.495Z,100081.91
2023-03-17T04:06:26.609Z,100074.75
2023-03-17T04:08:57.092Z,100077.78
2023-03-17T04:11:26.800Z,100073.59
2023-03-17T04:13:55.132Z,100078.94
2023-03-17T04:16:23.308Z,100081.19
2023-03-17T04:18:52.129Z,100079.03
2023-03-17T04:21:20.913Z,100075.13
2023-03-17T04:23:49.238Z,100076.41
2023-03-17T04:26:19.010Z,100076.50
2023-03-17T04:28:47.306Z,100089.59
2023-03-17T04:31:15.593Z,100079.38
2023-03-17T04:33:44.201Z,100074.44
2023-03-17T04:36:24.179Z,100068.28
2023-03-17T04:38:52.715Z,100082.28
2023-03-17T04:41:21.580Z,100078.56
2023-03-17T04:43:49.792Z,100075.25
2023-03-17T04:46:18.410Z,100079.59
2023-03-17T04:48:46.726Z,100085.31
2023-03-17T04:51:14.822Z,100088.25
2023-03-17T04:53:43.368Z,100088.81
2023-03-17T04:56:12.206Z,100095.09
2023-03-17T04:58:40.388Z,100093.31
2023-03-17T05:01:09.082Z,100091.09
2023-03-17T05:03:37.560Z,100105.19
2023-03-17T05:06:07.347Z,100097.91
2023-03-17T05:08:36.229Z,100093.91
2023-03-17T05:11:04.597Z,100102.56
2023-03-17T05:13:32.718Z,100101.37
2023-03-17T05:16:01.866Z,100108.66
2023-03-17T05:18:30.868Z,100105.16
2023-03-17T05:20:59.083Z,100104.84
2023-03-17T05:23:27.719Z,100103.06
2023-03-17T05:25:56.159Z,100105.47
2023-03-17T05:28:25.093Z,100098.69
2023-03-17T05:30:53.711Z,100099.66
2023-03-17T05:33:22.115Z,100102.69
2023-03-17T05:35:50.507Z,100107.34
2023-03-17T05:38:19.097Z,100102.47
2023-03-17T05:40:50.098Z,100099.16
2023-03-17T05:43:18.920Z,100109.13
2023-03-17T05:45:47.944Z,100093.88
2023-03-17T05:48:16.268Z,100099.47
2023-03-17T05:50:44.905Z,100093.41
2023-03-17T05:53:13.139Z,100082.38
2023-03-17T05:55:41.951Z,100079.06
2023-03-17T05:58:10.581Z,100090.16
2023-03-17T06:00:39.170Z,100091.63
2023-03-17T06:03:08.206Z,100084.22
2023-03-17T06:05:37.035Z,100091.25
2023-03-17T06:08:06.489Z,100085.22
2023-03-17T06:10:35.138Z,100090.44
2023-03-17T06:13:04.836Z,100088.56
2023-03-17T06:15:34.636Z,100090.28
2023-03-17T06:18:05.575Z,100099.97
2023-03-17T06:20:34.593Z,100098.56
2023-03-17T06:23:05.570Z,100100.50
2023-03-17T06:25:37.217Z,100107.16
2023-03-17T06:28:07.611Z,100098.03
2023-03-17T06:30:40.654Z,100105.94
2023-03-17T06:33:11.284Z,100109.31
2023-03-17T06:35:44.733Z,100111.28
2023-03-17T06:38:13.814Z,100109.41
2023-03-17T06:40:42.628Z,100113.66
2023-03-17T06:43:13.375Z,100123.00
2023-03-17T06:45:42.058Z,100113.84
2023-03-17T06:48:12.001Z,100115.72
2023-03-17T06:50:42.831Z,100113.38
2023-03-17T06:53:15.567Z,100125.72
2023-03-17T06:55:46.617Z,100124.06
2023-03-17T06:58:19.114Z,100126.06
2023-03-17T07:00:49.193Z,100123.31
2023-03-17T07:03:17.791Z,100128.63
2023-03-17T07:05:47.201Z,100125.16
2023-03-17T07:08:15.469Z,100124.31
2023-03-17T07:10:47.917Z,100128.56
2023-03-17T07:13:17.138Z,100133.84
2023-03-17T07:15:46.752Z,100141.59
2023-03-17T07:18:19.639Z,100143.41
2023-03-17T07:20:48.869Z,100143.41
2023-03-17T07:23:21.546Z,100146.81
2023-03-17T07:25:51.018Z,100144.94
2023-03-17T07:28:19.628Z,100142.47
2023-03-17T07:30:51.369Z,100143.38
2023-03-17T07:33:21.479Z,100144.28
2023-03-17T07:35:50.222Z,100147.69
2023-03-17T07:38:21.366Z,100148.25
2023-03-17T07:40:49.930Z,100150.94
2023-03-17T07:43:18.137Z,100145.16
2023-03-17T07:45:47.108Z,100154.56
2023-03-17T07:48:15.691Z,100150.34
2023-03-17T07:50:44.674Z,100147.75
2023-03-17T07:53:14.397Z,100154.72
2023-03-17T07:55:44.527Z,100171.19
2023-03-17T07:58:15.604Z,100169.72
2023-03-17T08:00:44.478Z,100168.34
2023-03-17T08:03:13.166Z,100171.78
2023-03-17T08:05:43.783Z,100152.91
2023-03-17T08:08:15.472Z,100161.66
2023-03-17T08:10:43.575Z,100151.19
2023-03-17T08:13:13.386Z,100152.97
2023-03-17T08:15:42.670Z,100150.25
2023-03-17T08:18:10.846Z,100152.97
2023-03-17T08:20:39.448Z,100149.47
2023-03-17T08:23:08.047Z,100156.47
2023-03-17T08:25:36.312Z,100147.72
2023-03-17T08:28:06.585Z,100141.50
2023-03-17T08:30:35.800Z,100148.59
2023-03-17T08:33:04.896Z,100145.84
2023-03-17T08:35:33.813Z,100152.69
2023-03-17T08:38:02.696Z,100139.53
2023-03-17T08:40:31.752Z,100145.97
2023-03-17T08:43:00.150Z,100153.34
2023-03-17T08:45:29.321Z,100148.34
2023-03-17T08:47:58.028Z,100150.25
2023-03-17T08:50:28.552Z,100158.00
2023-03-17T08:52:57.357Z,100143.28
2023-03-17T08:55:25.485Z,100144.03
2023-03-17T08:57:53.987Z,100147.72
2023-03-17T09:00:24.438Z,100145.87
2023-03-17T09:02:52.547Z,100148.31
2023-03-17T09:05:20.993Z,100152.44
2023-03-17T09:07:50.405Z,100145.78
2023-03-17T09:10:23.943Z,100146.66
2023-03-17T09:12:53.609Z,100151.22
2023-03-17T09:15:22.368Z,100145.06
2023-03-17T09:17:50.742Z,100150.84
2023-03-17T09:20:19.525Z,100134.88
2023-03-17T09:22:49.374Z,100129.66
2023-03-17T09:25:18.213Z,100135.34
2023-03-17T09:27:46.982Z,100136.84
2023-03-17T09:30:15.370Z,100129.13
2023-03-17T09:32:45.734Z,100131.28
2023-03-17T09:35:14.606Z,100130.09
2023-03-17T09:37:42.984Z,100132.44
2023-03-17T09:40:17.499Z,100129.66
2023-03-17T09:42:58.779Z,100128.69
2023-03-17T09:45:35.676Z,100125.94
2023-03-17T09:48:25.639Z,100129.31
2023-03-17T09:51:05.248Z,100122.63
2023-03-17T09:53:53.000Z,100121.94
2023-03-17T09:56:21.578Z,100114.97
2023-03-17T09:59:06.479Z,100115.34
2023-03-17T10:01:34.922Z,100114.22
2023-03-17T10:04:04.416Z,100113.66
2023-03-17T10:06:40.897Z,100109.00
2023-03-17T10:09:35.524Z,100112.94
2023-03-17T10:12:37.194Z,100118.84
2023-03-17T10:15:27.037Z,100119.19
2023-03-17T10:17:57.357Z,100116.75
2023-03-17T10:20:29.095Z,100107.41
2023-03-17T10:23:10.499Z,100104.94
2023-03-17T10:25:39.732Z,100089.44
2023-03-17T10:28:27.370Z,100099.72
2023-03-17T10:31:02.394Z,100083.66
2023-03-17T10:33:30.733Z,100077.84
2023-03-17T10:36:09.922Z,100074.97
2023-03-17T10:38:38.113Z,100077.31
2023-03-17T10:41:10.379Z,100069.75
2023-03-17T10:43:45.999Z,100077.06
2023-03-17T10:46:26.601Z,100072.66
2023-03-17T10:49:05.971Z,100065.94
2023-03-17T10:51:37.197Z,100068.66
2023-03-17T10:54:14.337Z,100073.31
2023-03-17T10:56:43.179Z,100069.84
2023-03-17T10:59:28.638Z,100063.47
2023-03-17T11:02:01.799Z,100063.78
2023-03-17T11:04:40.510Z,100057.50
2023-03-17T11:07:31.555Z,100046.72
2023-03-17T11:10:03.211Z,100038.25
2023-03-17T11:12:38.522Z,100042.78
2023-03-17T11:15:12.554Z,100035.09
2023-03-17T11:18:01.149Z,100029.22
2023-03-17T11:20:57.313Z,100040.84
2023-03-17T11:23:46.911Z,100025.72
2023-03-17T11:26:21.572Z,100028.94
2023-03-17T11:29:04.627Z,100027.81
2023-03-17T11:31:38.185Z,100026.06
2023-03-17T11:34:18.150Z,100028.22
2023-03-17T11:37:32.720Z,100019.28
2023-03-17T11:40:18.763Z,100020.53
2023-03-17T11:43:20.620Z,99999.94
2023-03-17T11:45:49.456Z,100000.06
2023-03-17T11:48:35.532Z,99993.47
2023-03-17T11:51:10.590Z,99985.59
2023-03-17T11:53:38.753Z,99981.00
2023-03-17T11:56:14.112Z,99979.09
2023-03-17T11:58:47.256Z,99974.69
2023-03-17T12:01:26.645Z,99982.56
2023-03-17T12:04:11.599Z,99962.09
2023-03-17T12:06:51.049Z,99962.22
2023-03-17T12:09:33.734Z,99949.00
2023-03-17T12:12:04.639Z,99964.59
2023-03-17T12:14:40.440Z,99962.09
2023-03-17T12:17:34.806Z,99952.12
2023-03-17T12:20:08.238Z,99945.34
2023-03-17T12:23:29.780Z,99937.69
2023-03-17T12:26:08.858Z,99943.50
2023-03-17T12:28:44.847Z,99938.47
2023-03-17T12:31:18.720Z,99931.87
2023-03-17T12:34:16.617Z,99919.78
2023-03-17T12:36:45.137Z,99922.69
2023-03-17T12:39:28.635Z,99927.09
2023-03-17T12:42:12.148Z,99924.50
2023-03-17T12:45:07.665Z,99927.16
2023-03-17T12:48:26.839Z,99929.97
2023-03-17T12:51:07.049Z,99919.56
2023-03-17T12:53:39.094Z,99914.56
2023-03-17T12:56:29.405Z,99912.81
2023-03-17T12:59:21.906Z,99912.47
2023-03-17T13:02:00.718Z,99911.25
2023-03-17T13:04:37.564Z,99923.44
2023-03-17T13:07:13.178Z,99902.59
2023-03-17T13:09:43.317Z,99897.13
2023-03-17T13:12:42.885Z,99908.91
2023-03-17T13:15:48.455Z,99904.09
2023-03-17T13:18:16.786Z,99901.16
2023-03-17T13:20:58.200Z,99900.44
2023-03-17T13:23:49.483Z,99908.50
2023-03-17T13:26:24.625Z,99884.88
2023-03-17T13:28:54.725Z,99892.75
2023-03-17T13:31:31.407Z,99887.37
2023-03-17T13:34:20.378Z,99885.72
2023-03-17T13:37:05.954Z,99883.25
2023-03-17T13:40:14.893Z,99884.16
2023-03-17T13:42:50.312Z,99885.41
2023-03-17T13:45:23.118Z,99897.06
2023-03-17T13:48:21.024Z,99901.34
2023-03-17T13:51:14.514Z,99899.38
2023-03-17T13:53:51.545Z,99892.19
2023-03-17T13:56:44.508Z,99891.47
2023-03-17T14:00:06.785Z,99875.62
2023-03-17T14:02:41.902Z,99878.87
2023-03-17T14:05:29.275Z,99878.37
2023-03-17T14:08:18.477Z,99863.75
2023-03-17T14:10:57.888Z,99866.19
2023-03-17T14:13:55.138Z,99862.66
2023-03-17T14:16:38.796Z,99861.69
2023-03-17T14:19:20.933Z,99857.66
2023-03-17T14:21:52.146Z,99838.97
2023-03-17T14:24:35.234Z,99845.03
2023-03-17T14:27:09.307Z,99835.25
2023-03-17T14:29:44.845Z,99836.00
2023-03-17T14:32:16.544Z,99844.03
2023-03-17T14:34:53.361Z,99842.41
2023-03-17T14:37:22.518Z,99838.38
2023-03-17T14:39:55.758Z,99833.03
2023-03-17T14:42:29.448Z,99826.31
2023-03-17T14:45:04.159Z,99818.44
2023-03-17T14:47:40.662Z,99817.59
2023-03-17T14:50:32.478Z,99808.63
2023-03-17T14:53:01.248Z,99799.94
2023-03-17T14:55:41.116Z,99795.34
2023-03-17T14:58:21.249Z,99794.66
2023-03-17T15:00:56.515Z,99796.22
2023-03-17T15:03:25.755Z,99799.69
2023-03-17T15:08:46.358Z,99793.03
2023-03-17T15:11:21.113Z,99786.88
2023-03-17T15:13:50.240Z,99784.56
2023-03-17T15:16:28.422Z,99782.53
2023-03-17T15:19:10.772Z,99782.84
2023-03-17T15:21:42.347Z,99773.66
2023-03-17T15:24:32.805Z,99761.47
2023-03-17T15:27:07.375Z,99766.97
2023-03-17T15:29:36.781Z,99762.69
2023-03-17T15:32:14.571Z,99759.38
2023-03-17T15:34:43.100Z,99761.25
2023-03-17T15:37:23.992Z,99757.94
2023-03-17T15:39:53.396Z,99753.72
2023-03-17T15:42:25.301Z,99758.81
2023-03-17T15:44:56.932Z,99762.31
2023-03-17T15:47:28.522Z,99758.75
2023-03-17T15:50:07.760Z,99755.03
2023-03-17T15:52:37.801Z,99754.41
2023-03-17T15:55:24.028Z,99751.78
2023-03-17T15:57:55.954Z,99749.19
2023-03-17T16:00:31.136Z,99752.62
2023-03-17T16:03:05.004Z,99750.22
2023-03-17T16:05:34.432Z,99755.38
2023-03-17T16:08:03.085Z,99752.78
2023-03-17T16:10:33.477Z,99744.97
2023-03-17T16:13:02.549Z,99751.97
2023-03-17T16:15:32.840Z,99749.28
2023-03-17T16:18:04.495Z,99752.94
2023-03-17T16:20:41.971Z,99753.69
2023-03-17T16:23:16.092Z,99753.75
2023-03-17T16:25:46.238Z,99750.31
2023-03-17T16:28:23.574Z,99751.19
2023-03-17T16:30:54.706Z,99751.16
2023-03-17T16:33:26.865Z,99741.63
2023-03-17T16:35:58.515Z,99752.94
2023-03-17T16:38:29.965Z,99759.00
2023-03-17T16:41:08.205Z,99749.44
2023-03-17T16:43:39.918Z,99756.41
2023-03-17T16:46:11.332Z,99756.38
2023-03-17T16:48:40.286Z,99755.47
2023-03-17T16:51:08.910Z,99759.84
2023-03-17T16:53:37.128Z,99757.19
2023-03-17T16:56:10.428Z,99759.38
2023-03-17T16:58:40.001Z,99756.25
2023-03-17T17:01:13.861Z,99761.84
2023-03-17T17:03:43.218Z,99761.81
2023-03-17T17:06:12.911Z,99762.66
2023-03-17T17:08:44.996Z,99767.09
2023-03-17T17:11:15.045Z,99766.97
2023-03-17T17:13:45.444Z,99763.31
2023-03-17T17:16:28.332Z,99760.56
2023-03-17T17:18:57.518Z,99766.13
2023-03-17T17:21:27.039Z,99760.41
2023-03-17T17:23:56.086Z,99755.41
2023-03-17T17:26:24.268Z,99755.81
2023-03-17T17:28:53.039Z,99752.31
2023-03-17T17:31:22.967Z,99760.56
2023-03-17T17:33:51.254Z,99762.13
2023-03-17T17:36:19.760Z,99758.56
2023-03-17T17:38:49.651Z,99754.66
2023-03-17T17:41:21.734Z,99762.88
2023-03-17T17:43:50.766Z,99754.53
2023-03-17T17:46:23.272Z,99751.59
2023-03-17T17:48:52.683Z,99758.13
2023-03-17T17:51:20.948Z,99751.84
2023-03-17T17:53:50.914Z,99754.31
2023-03-17T17:56:19.677Z,99758.00
2023-03-17T17:58:48.146Z,99761.09
2023-03-17T18:01:20.090Z,99754.84
2023-03-17T18:03:48.991Z,99757.97
2023-03-17T18:06:18.224Z,99756.03
2023-03-17T18:08:46.811Z,99754.81
2023-03-17T18:11:15.848Z,99754.22
2023-03-17T18:13:44.932Z,99752.94
2023-03-17T18:16:16.698Z,99763.97
2023-03-17T18:18:46.632Z,99763.75
2023-03-17T18:21:15.373Z,99757.91
2023-03-17T18:23:47.474Z,99770.16
2023-03-17T18:26:17.578Z,99763.53
2023-03-17T18:28:45.768Z,99759.53
2023-03-17T18:31:39.218Z,99762.16
2023-03-17T18:34:13.227Z,99763.47
2023-03-17T18:36:41.925Z,99762.78
2023-03-17T18:39:10.856Z,99759.28
2023-03-17T18:41:39.154Z,99767.97
2023-03-17T18:44:07.900Z,99763.53
2023-03-17T18:46:37.499Z,99757.19
2023-03-17T18:49:06.604Z,99765.56
2023-03-17T18:51:35.248Z,99770.78
2023-03-17T18:54:05.105Z,99765.44
2023-03-17T18:56:33.330Z,99771.00
2023-03-17T18:59:01.628Z,99769.19
2023-03-17T19:01:30.895Z,99760.84
2023-03-17T19:03:59.319Z,99762.56
2023-03-17T19:06:27.559Z,99766.69
2023-03-17T19:08:56.573Z,99766.38
2023-03-17T19:11:25.768Z,99751.91
2023-03-17T19:13:56.189Z,99758.78
2023-03-17T19:16:29.333Z,99754.06
2023-03-17T19:18:59.555Z,99756.72
2023-03-17T19:21:28.890Z,99756.72
2023-03-17T19:24:01.152Z,99752.66
2023-03-17T19:26:31.478Z,99744.72
2023-03-17T19:29:00.837Z,99742.87
2023-03-17T19:31:29.322Z,99749.81
2023-03-17T19:33:57.608Z,99745.47
2023-03-17T19:36:26.274Z,99748.19
2023-03-17T19:38:54.879Z,99737.81
2023-03-17T19:41:23.267Z,99745.84
2023-03-17T19:43:51.778Z,99746.59
2023-03-17T19:46:20.261Z,99749.59
2023-03-17T19:48:48.450Z,99739.31
2023-03-17T19:51:17.096Z,99740.00
2023-03-17T19:53:45.596Z,99739.25
2023-03-17T19:56:13.693Z,99740.13
2023-03-17T19:58:42.236Z,99738.22
2023-03-17T20:01:10.417Z,99726.44
2023-03-17T20:03:42.667Z,99731.56
2023-03-17T20:06:12.639Z,99729.28
2023-03-17T20:08:43.013Z,99725.56
2023-03-17T20:11:12.297Z,99726.72
2023-03-17T20:13:41.247Z,99724.06
2023-03-17T20:16:09.680Z,99720.84
2023-03-17T20:18:38.317Z,99728.19
2023-03-17T20:21:14.464Z,99721.94
2023-03-17T20:23:42.758Z,99729.78
2023-03-17T20:26:11.301Z,99730.16
2023-03-17T20:28:39.386Z,99722.00
2023-03-17T20:31:10.204Z,99727.53
2023-03-17T20:33:38.780Z,99722.84
2023-03-17T20:36:07.262Z,99724.53
2023-03-17T20:38:39.225Z,99725.13
2023-03-17T20:41:18.661Z,99721.22
2023-03-17T20:43:47.612Z,99716.66
2023-03-17T20:46:24.124Z,99722.75
2023-03-17T20:48:58.915Z,99715.16
2023-03-17T20:51:27.874Z,99710.72
2023-03-17T20:53:57.077Z,99713.19
2023-03-17T20:56:26.861Z,99709.91
2023-03-17T20:58:56.542Z,99710.78
2023-03-17T21:01:24.876Z,99711.94
2023-03-17T21:03:53.820Z,99712.31
2023-03-17T21:06:25.854Z,99712.63
2023-03-17T21:08:54.694Z,99706.75
2023-03-17T21:11:23.439Z,99703.53
2023-03-17T21:13:52.111Z,99704.81
2023-03-17T21:16:24.158Z,99697.38
2023-03-17T21:18:52.981Z,99693.66
2023-03-17T21:21:22.309Z,99697.44
2023-03-17T21:23:50.471Z,99697.97
2023-03-17T21:26:19.734Z,99696.84
2023-03-17T21:28:49.014Z,99693.12
2023-03-17T21:31:17.541Z,99696.00
2023-03-17T21:33:50.821Z,99702.47
2023-03-17T21:36:21.127Z,99696.69
2023-03-17T21:38:49.901Z,99700.28
2023-03-17T21:41:22.610Z,99691.31
2023-03-17T21:43:51.380Z,99699.41
2023-03-17T21:46:19.473Z,99704.41
2023-03-17T21:48:47.680Z,99701.91
2023-03-17T21:51:16.166Z,99705.00
2023-03-17T21:53:44.934Z,99707.78
2023-03-17T21:56:13.815Z,99703.22
2023-03-17T21:58:43.254Z,99697.72
2023-03-17T22:01:12.005Z,99698.25
2023-03-17T22:03:42.518Z,99706.09
2023-03-17T22:06:11.952Z,99695.66
2023-03-17T22:08:40.798Z,99698.06
2023-03-17T22:11:19.131Z,99708.62
2023-03-17T22:13:48.318Z,99704.00
2023-03-17T22:16:17.256Z,99711.09
2023-03-17T22:18:45.747Z,99703.84
2023-03-17T22:21:14.946Z,99709.72
2023-03-17T22:23:43.097Z,99708.38
2023-03-17T22:26:16.834Z,99700.66
2023-03-17T22:28:46.600Z,99696.78
2023-03-17T22:31:20.961Z,99695.72
2023-03-17T22:33:51.420Z,99696.66
2023-03-17T22:36:19.593Z,99692.31
2023-03-17T22:38:47.862Z,99687.84
2023-03-17T22:41:21.935Z,99688.94
2023-03-17T22:43:50.446Z,99690.91
2023-03-17T22:46:19.589Z,99697.44
2023-03-17T22:48:48.215Z,99684.47
2023-03-17T22:51:19.421Z,99689.66
2023-03-17T22:53:47.998Z,99688.09
2023-03-17T22:56:16.958Z,99689.25
2023-03-17T22:58:46.003Z,99683.84
2023-03-17T23:01:16.779Z,99682.22
2023-03-17T23:03:45.875Z,99684.25
2023-03-17T23:06:14.881Z,99683.03
2023-03-17T23:08:43.907Z,99678.47
2023-03-17T23:11:18.684Z,99672.97
2023-03-17T23:13:48.191Z,99681.81
2023-03-17T23:16:17.508Z,99688.56
2023-03-17T23:18:46.977Z,99685.16
2023-03-17T23:21:30.468Z,99684.41
2023-03-17T23:23:59.367Z,99680.81
2023-03-17T23:26:28.747Z,99674.84
2023-03-17T23:28:56.844Z,99693.16
2023-03-17T23:31:24.984Z,99687.66
2023-03-17T23:33:53.925Z,99686.25
2023-03-17T23:36:22.119Z,99684.75
2023-03-17T23:38:52.448Z,99679.44
2023-03-17T23:41:21.107Z,99667.66
2023-03-17T23:43:49.343Z,99674.22
2023-03-17T23:46:18.095Z,99675.69
2023-03-17T23:48:46.898Z,99681.03
2023-03-17T23:51:15.614Z,99674.47
2023-03-17T23:53:43.947Z,99676.81
2023-03-17T23:56:13.254Z,99677.84
2023-03-17T23:58:43.701Z,99676.13
